Terminal Aerodrome Forecast
Issued by NWS Wilmington, OH

Current Version | Previous Version | Text Only | Print | Product List | Glossary Off
Versions: 1 2 3 4 5 6 7 8 9 10 11 12 13 14 15 16 17 18 19 20 21 22 23 24 25 26 27

000
FTUS41 KILN 201455 AAA
TAFCVG
TAF AMD
KCVG 201455Z 2015/2118 17005KT P6SM FEW250
     FM201600 19006KT P6SM SCT040
     FM210100 20002KT P6SM SCT250
     FM211500 20006KT P6SM SCT040=

USA.gov is the U.S. government's official web portal to all federal, state and local government web resources and services.